sensor_id;sensor_type;location;lat;lon;timestamp;pressure;altitude;pressure_sealevel;temperature;humidity
67740;BME280;54536;50.090;14.420;2023-04-25T00:00:08;98675.06;;;13.17;49.64
67740;BME280;54536;50.090;14.420;2023-04-25T00:02:54;98670.25;;;13.20;49.54
67740;BME280;54536;50.090;14.420;2023-04-25T00:05:23;98672.75;;;13.22;48.01
67740;BME280;54536;50.090;14.420;2023-04-25T00:07:53;98673.44;;;13.16;47.95
67740;BME280;54536;50.090;14.420;2023-04-25T00:10:20;98676.59;;;13.03;47.62
67740;BME280;54536;50.090;14.420;2023-04-25T00:12:46;98666.25;;;12.93;48.57
67740;BME280;54536;50.090;14.420;2023-04-25T00:15:13;98673.16;;;12.94;48.75
67740;BME280;54536;50.090;14.420;2023-04-25T00:17:39;98671.03;;;12.89;47.84
67740;BME280;54536;50.090;14.420;2023-04-25T00:20:06;98679.75;;;12.98;48.32
67740;BME280;54536;50.090;14.420;2023-04-25T00:22:35;98673.50;;;12.91;48.28
67740;BME280;54536;50.090;14.420;2023-04-25T00:25:07;98680.72;;;12.97;48.63
67740;BME280;54536;50.090;14.420;2023-04-25T00:27:33;98671.53;;;12.85;48.39
67740;BME280;54536;50.090;14.420;2023-04-25T00:29:59;98673.34;;;12.93;48.72
67740;BME280;54536;50.090;14.420;2023-04-25T00:32:26;98674.69;;;12.88;48.83
67740;BME280;54536;50.090;14.420;2023-04-25T00:34:52;98679.81;;;12.82;49.40
67740;BME280;54536;50.090;14.420;2023-04-25T00:37:18;98680.44;;;12.92;49.34
67740;BME280;54536;50.090;14.420;2023-04-25T00:39:45;98676.34;;;12.73;49.85
67740;BME280;54536;50.090;14.420;2023-04-25T00:42:11;98669.94;;;12.59;49.48
67740;BME280;54536;50.090;14.420;2023-04-25T00:44:38;98667.59;;;12.81;49.12
67740;BME280;54536;50.090;14.420;2023-04-25T00:47:06;98662.81;;;12.68;49.21
67740;BME280;54536;50.090;14.420;2023-04-25T00:49:33;98669.44;;;12.72;50.13
67740;BME280;54536;50.090;14.420;2023-04-25T00:52:00;98667.63;;;12.64;50.06
67740;BME280;54536;50.090;14.420;2023-04-25T00:54:26;98672.56;;;12.76;49.89
67740;BME280;54536;50.090;14.420;2023-04-25T00:56:52;98663.50;;;12.70;50.60
67740;BME280;54536;50.090;14.420;2023-04-25T00:59:19;98661.19;;;12.67;50.32
67740;BME280;54536;50.090;14.420;2023-04-25T01:01:46;98661.81;;;12.77;49.88
67740;BME280;54536;50.090;14.420;2023-04-25T01:04:13;98658.03;;;12.80;49.69
67740;BME280;54536;50.090;14.420;2023-04-25T01:06:40;98658.22;;;12.62;50.40
67740;BME280;54536;50.090;14.420;2023-04-25T01:09:07;98653.78;;;12.62;50.48
67740;BME280;54536;50.090;14.420;2023-04-25T01:11:33;98652.28;;;12.68;50.29
67740;BME280;54536;50.090;14.420;2023-04-25T01:13:59;98649.16;;;12.73;51.00
67740;BME280;54536;50.090;14.420;2023-04-25T01:16:26;98659.41;;;12.43;50.62
67740;BME280;54536;50.090;14.420;2023-04-25T01:18:53;98659.41;;;12.59;50.37
67740;BME280;54536;50.090;14.420;2023-04-25T01:21:20;98655.25;;;12.65;50.54
67740;BME280;54536;50.090;14.420;2023-04-25T01:23:46;98653.47;;;12.49;50.45
67740;BME280;54536;50.090;14.420;2023-04-25T01:26:13;98654.28;;;12.50;50.30
67740;BME280;54536;50.090;14.420;2023-04-25T01:28:39;98649.31;;;12.63;51.03
67740;BME280;54536;50.090;14.420;2023-04-25T01:31:09;98648.81;;;12.68;50.84
67740;BME280;54536;50.090;14.420;2023-04-25T01:33:36;98649.31;;;12.63;50.54
67740;BME280;54536;50.090;14.420;2023-04-25T01:36:04;98646.03;;;12.61;50.29
67740;BME280;54536;50.090;14.420;2023-04-25T01:38:30;98646.53;;;12.56;50.34
67740;BME280;54536;50.090;14.420;2023-04-25T01:40:57;98652.63;;;12.49;50.97
67740;BME280;54536;50.090;14.420;2023-04-25T01:43:24;98644.22;;;12.61;51.42
67740;BME280;54536;50.090;14.420;2023-04-25T01:45:50;98646.22;;;12.59;50.28
67740;BME280;54536;50.090;14.420;2023-04-25T01:48:17;98655.94;;;12.51;50.85
67740;BME280;54536;50.090;14.420;2023-04-25T01:50:44;98649.50;;;12.53;50.99
67740;BME280;54536;50.090;14.420;2023-04-25T01:53:13;98650.31;;;12.46;51.09
67740;BME280;54536;50.090;14.420;2023-04-25T01:55:40;98649.69;;;12.27;51.51
67740;BME280;54536;50.090;14.420;2023-04-25T01:58:06;98652.97;;;12.37;51.29
67740;BME280;54536;50.090;14.420;2023-04-25T02:00:39;98653.81;;;12.30;52.36
67740;BME280;54536;50.090;14.420;2023-04-25T02:03:07;98650.03;;;12.24;52.04
67740;BME280;54536;50.090;14.420;2023-04-25T02:05:38;98650.69;;;12.18;51.74
67740;BME280;54536;50.090;14.420;2023-04-25T02:08:09;98655.78;;;12.28;51.75
67740;BME280;54536;50.090;14.420;2023-04-25T02:10:36;98656.63;;;12.36;51.76
67740;BME280;54536;50.090;14.420;2023-04-25T02:13:02;98649.34;;;12.22;52.65
67740;BME280;54536;50.090;14.420;2023-04-25T02:15:30;98652.81;;;12.06;52.49
67740;BME280;54536;50.090;14.420;2023-04-25T02:17:56;98651.19;;;12.13;52.86
67740;BME280;54536;50.090;14.420;2023-04-25T02:20:24;98644.91;;;12.06;52.50
67740;BME280;54536;50.090;14.420;2023-04-25T02:22:51;98645.06;;;12.21;52.73
67740;BME280;54536;50.090;14.420;2023-04-25T02:25:18;98640.63;;;12.30;53.03
67740;BME280;54536;50.090;14.420;2023-04-25T02:27:46;98640.13;;;12.18;52.56
67740;BME280;54536;50.090;14.420;2023-04-25T02:30:13;98638.50;;;12.17;52.84
67740;BME280;54536;50.090;14.420;2023-04-25T02:32:39;98634.22;;;12.24;52.30
67740;BME280;54536;50.090;14.420;2023-04-25T02:35:07;98633.06;;;12.18;52.46
67740;BME280;54536;50.090;14.420;2023-04-25T02:37:35;98632.41;;;12.08;52.96
67740;BME280;54536;50.090;14.420;2023-04-25T02:40:02;98629.78;;;12.00;52.90
67740;BME280;54536;50.090;14.420;2023-04-25T02:42:30;98627.78;;;12.02;52.76
67740;BME280;54536;50.090;14.420;2023-04-25T02:44:56;98631.50;;;11.83;53.77
67740;BME280;54536;50.090;14.420;2023-04-25T02:47:22;98637.78;;;11.82;54.06
67740;BME280;54536;50.090;14.420;2023-04-25T02:49:48;98631.66;;;11.73;53.48
67740;BME280;54536;50.090;14.420;2023-04-25T02:52:15;98630.19;;;11.71;53.78
67740;BME280;54536;50.090;14.420;2023-04-25T02:54:41;98640.63;;;11.89;53.19
67740;BME280;54536;50.090;14.420;2023-04-25T02:57:08;98632.38;;;11.84;54.16
67740;BME280;54536;50.090;14.420;2023-04-25T02:59:34;98629.56;;;11.77;54.00
67740;BME280;54536;50.090;14.420;2023-04-25T03:02:01;98630.25;;;11.87;53.54
67740;BME280;54536;50.090;14.420;2023-04-25T03:04:30;98627.41;;;11.81;53.92
67740;BME280;54536;50.090;14.420;2023-04-25T03:06:56;98633.38;;;11.99;53.87
67740;BME280;54536;50.090;14.420;2023-04-25T03:09:22;98621.53;;;11.95;53.32
67740;BME280;54536;50.090;14.420;2023-04-25T03:11:48;98621.16;;;11.82;54.08
67740;BME280;54536;50.090;14.420;2023-04-25T03:14:15;98618.88;;;11.95;53.84
67740;BME280;54536;50.090;14.420;2023-04-25T03:16:40;98618.25;;;12.01;53.13
67740;BME280;54536;50.090;14.420;2023-04-25T03:19:07;98617.88;;;11.96;52.81
67740;BME280;54536;50.090;14.420;2023-04-25T03:21:34;98615.22;;;11.80;54.13
67740;BME280;54536;50.090;14.420;2023-04-25T03:24:03;98612.97;;;11.85;53.80
67740;BME280;54536;50.090;14.420;2023-04-25T03:26:29;98614.44;;;11.95;52.97
67740;BME280;54536;50.090;14.420;2023-04-25T03:28:56;98617.69;;;11.81;53.78
67740;BME280;54536;50.090;14.420;2023-04-25T03:31:22;98619.03;;;11.77;54.00
67740;BME280;54536;50.090;14.420;2023-04-25T03:33:48;98622.19;;;11.97;53.54
67740;BME280;54536;50.090;14.420;2023-04-25T03:36:14;98626.13;;;11.93;53.85
67740;BME280;54536;50.090;14.420;2023-04-25T03:38:40;98629.94;;;11.90;53.53
67740;BME280;54536;50.090;14.420;2023-04-25T03:41:07;98619.88;;;11.86;54.11
67740;BME280;54536;50.090;14.420;2023-04-25T03:43:34;98622.59;;;11.52;54.60
67740;BME280;54536;50.090;14.420;2023-04-25T03:46:00;98618.00;;;11.70;54.41
67740;BME280;54536;50.090;14.420;2023-04-25T03:48:27;98626.56;;;11.80;54.15
67740;BME280;54536;50.090;14.420;2023-04-25T03:50:54;98620.13;;;11.66;54.51
67740;BME280;54536;50.090;14.420;2023-04-25T03:53:21;98618.31;;;11.59;54.55
67740;BME280;54536;50.090;14.420;2023-04-25T03:55:47;98614.88;;;11.83;53.40
67740;BME280;54536;50.090;14.420;2023-04-25T03:58:13;98613.38;;;11.56;54.09
67740;BME280;54536;50.090;14.420;2023-04-25T04:00:39;98620.97;;;11.67;53.94
67740;BME280;54536;50.090;14.420;2023-04-25T04:03:05;98617.53;;;11.75;53.70
67740;BME280;54536;50.090;14.420;2023-04-25T04:05:32;98619.03;;;11.85;54.03
67740;BME280;54536;50.090;14.420;2023-04-25T04:07:58;98616.22;;;11.87;53.34
67740;BME280;54536;50.090;14.420;2023-04-25T04:10:24;98614.56;;;11.78;53.37
67740;BME280;54536;50.090;14.420;2023-04-25T04:12:52;98620.97;;;11.83;53.68
67740;BME280;54536;50.090;14.420;2023-04-25T04:15:18;98622.00;;;11.99;53.38
67740;BME280;54536;50.090;14.420;2023-04-25T04:17:44;98631.50;;;11.83;53.40
67740;BME280;54536;50.090;14.420;2023-04-25T04:20:11;98620.97;;;11.83;53.62
67740;BME280;54536;50.090;14.420;2023-04-25T04:22:37;98622.47;;;11.78;53.68
67740;BME280;54536;50.090;14.420;2023-04-25T04:25:03;98623.78;;;11.82;54.55
67740;BME280;54536;50.090;14.420;2023-04-25T04:27:32;98616.59;;;11.92;53.10
67740;BME280;54536;50.090;14.420;2023-04-25T04:29:58;98622.84;;;11.91;53.31
67740;BME280;54536;50.090;14.420;2023-04-25T04:32:24;98618.16;;;11.77;53.83
67740;BME280;54536;50.090;14.420;2023-04-25T04:34:51;98620.69;;;12.03;53.55
67740;BME280;54536;50.090;14.420;2023-04-25T04:37:18;98620.19;;;11.99;53.53
67740;BME280;54536;50.090;14.420;2023-04-25T04:39:45;98619.72;;;12.12;53.38
67740;BME280;54536;50.090;14.420;2023-04-25T04:42:11;98617.72;;;12.06;53.46
67740;BME280;54536;50.090;14.420;2023-04-25T04:44:38;98608.13;;;11.72;54.62
67740;BME280;54536;50.090;14.420;2023-04-25T04:47:05;98612.41;;;11.73;54.58
67740;BME280;54536;50.090;14.420;2023-04-25T04:49:32;98613.72;;;11.69;54.65
67740;BME280;54536;50.090;14.420;2023-04-25T04:51:58;98622.28;;;11.79;53.95
67740;BME280;54536;50.090;14.420;2023-04-25T04:54:25;98617.91;;;11.88;54.37
67740;BME280;54536;50.090;14.420;2023-04-25T04:56:52;98617.91;;;11.88;54.25
67740;BME280;54536;50.090;14.420;2023-04-25T04:59:18;98620.38;;;11.98;54.21
67740;BME280;54536;50.090;14.420;2023-04-25T05:01:44;98619.56;;;12.13;54.40
67740;BME280;54536;50.090;14.420;2023-04-25T05:04:12;98625.47;;;12.15;53.65
67740;BME280;54536;50.090;14.420;2023-04-25T05:06:39;98622.50;;;12.18;54.22
67740;BME280;54536;50.090;14.420;2023-04-25T05:09:04;98625.50;;;12.07;54.47
67740;BME280;54536;50.090;14.420;2023-04-25T05:11:31;98625.50;;;12.07;54.31
67740;BME280;54536;50.090;14.420;2023-04-25T05:13:57;98624.16;;;12.03;54.12
67740;BME280;54536;50.090;14.420;2023-04-25T05:16:23;98625.31;;;12.09;54.09
67740;BME280;54536;50.090;14.420;2023-04-25T05:18:49;98618.22;;;12.17;53.47
67740;BME280;54536;50.090;14.420;2023-04-25T05:21:16;98614.63;;;12.10;53.35
67740;BME280;54536;50.090;14.420;2023-04-25T05:23:42;98621.03;;;12.24;53.89
67740;BME280;54536;50.090;14.420;2023-04-25T05:26:08;98615.09;;;12.14;53.96
67740;BME280;54536;50.090;14.420;2023-04-25T05:28:42;98608.34;;;12.19;53.69
67740;BME280;54536;50.090;14.420;2023-04-25T05:31:11;98611.16;;;12.26;52.82
67740;BME280;54536;50.090;14.420;2023-04-25T05:33:37;98614.94;;;12.24;53.36
67740;BME280;54536;50.090;14.420;2023-04-25T05:36:04;98615.56;;;12.26;53.50
67740;BME280;54536;50.090;14.420;2023-04-25T05:38:30;98617.38;;;12.41;53.09
67740;BME280;54536;50.090;14.420;2023-04-25T05:40:57;98618.84;;;12.36;52.94
67740;BME280;54536;50.090;14.420;2023-04-25T05:43:23;98621.69;;;12.43;52.78
67740;BME280;54536;50.090;14.420;2023-04-25T05:45:49;98627.31;;;12.23;53.51
67740;BME280;54536;50.090;14.420;2023-04-25T05:48:18;98617.25;;;12.18;53.15
67740;BME280;54536;50.090;14.420;2023-04-25T05:50:44;98621.00;;;12.40;53.02
67740;BME280;54536;50.090;14.420;2023-04-25T05:53:11;98616.22;;;12.36;53.50
67740;BME280;54536;50.090;14.420;2023-04-25T05:55:37;98622.50;;;12.43;53.34
67740;BME280;54536;50.090;14.420;2023-04-25T05:58:04;98614.44;;;12.36;52.78
67740;BME280;54536;50.090;14.420;2023-04-25T06:00:31;98614.53;;;12.68;52.40
67740;BME280;54536;50.090;14.420;2023-04-25T06:02:57;98620.16;;;12.56;52.27
67740;BME280;54536;50.090;14.420;2023-04-25T06:05:23;98614.22;;;12.54;52.40
67740;BME280;54536;50.090;14.420;2023-04-25T06:07:49;98615.81;;;12.72;51.98
67740;BME280;54536;50.090;14.420;2023-04-25T06:10:16;98608.72;;;12.88;51.97
67740;BME280;54536;50.090;14.420;2023-04-25T06:12:42;98611.03;;;12.83;52.15
67740;BME280;54536;50.090;14.420;2023-04-25T06:15:08;98605.22;;;12.96;51.72
67740;BME280;54536;50.090;14.420;2023-04-25T06:17:34;98612.25;;;13.04;51.67
67740;BME280;54536;50.090;14.420;2023-04-25T06:20:02;98609.31;;;12.99;51.03
67740;BME280;54536;50.090;14.420;2023-04-25T06:22:29;98612.59;;;13.01;51.78
67740;BME280;54536;50.090;14.420;2023-04-25T06:24:56;98610.50;;;12.88;51.64
67740;BME280;54536;50.090;14.420;2023-04-25T06:27:24;98607.16;;;13.02;51.34
67740;BME280;54536;50.090;14.420;2023-04-25T06:29:51;98599.94;;;12.96;51.86
67740;BME280;54536;50.090;14.420;2023-04-25T06:32:17;98605.28;;;13.11;51.29
67740;BME280;54536;50.090;14.420;2023-04-25T06:34:44;98604.34;;;13.04;51.79
67740;BME280;54536;50.090;14.420;2023-04-25T06:37:14;98601.97;;;13.17;51.09
67740;BME280;54536;50.090;14.420;2023-04-25T06:39:40;98601.34;;;13.15;51.52
67740;BME280;54536;50.090;14.420;2023-04-25T06:42:06;98601.16;;;13.17;51.47
67740;BME280;54536;50.090;14.420;2023-04-25T06:44:33;98603.72;;;13.02;51.28
67740;BME280;54536;50.090;14.420;2023-04-25T06:46:58;98608.81;;;13.03;51.27
67740;BME280;54536;50.090;14.420;2023-04-25T06:49:24;98602.25;;;12.91;51.23
67740;BME280;54536;50.090;14.420;2023-04-25T06:51:50;98597.78;;;13.00;51.42
67740;BME280;54536;50.090;14.420;2023-04-25T06:54:17;98596.13;;;12.99;51.72
67740;BME280;54536;50.090;14.420;2023-04-25T06:56:43;98590.31;;;13.03;51.52
67740;BME280;54536;50.090;14.420;2023-04-25T06:59:09;98598.09;;;13.05;51.50
67740;BME280;54536;50.090;14.420;2023-04-25T07:01:35;98601.22;;;13.00;51.97
67740;BME280;54536;50.090;14.420;2023-04-25T07:04:01;98599.81;;;13.21;51.27
67740;BME280;54536;50.090;14.420;2023-04-25T07:06:27;98596.19;;;13.22;51.64
67740;BME280;54536;50.090;14.420;2023-04-25T07:08:54;98597.16;;;13.21;52.07
67740;BME280;54536;50.090;14.420;2023-04-25T07:11:21;98598.84;;;13.13;51.41
67740;BME280;54536;50.090;14.420;2023-04-25T07:13:47;98593.38;;;13.23;51.65
67740;BME280;54536;50.090;14.420;2023-04-25T07:16:13;98594.34;;;13.30;51.26
67740;BME280;54536;50.090;14.420;2023-04-25T07:18:40;98593.72;;;13.20;51.06
67740;BME280;54536;50.090;14.420;2023-04-25T07:21:05;98598.69;;;13.15;50.78
67740;BME280;54536;50.090;14.420;2023-04-25T07:23:31;98597.91;;;13.06;51.25
67740;BME280;54536;50.090;14.420;2023-04-25T07:25:57;98603.50;;;13.11;51.66
67740;BME280;54536;50.090;14.420;2023-04-25T07:28:23;98602.16;;;13.16;51.49
67740;BME280;54536;50.090;14.420;2023-04-25T07:30:49;98597.69;;;13.24;51.03
67740;BME280;54536;50.090;14.420;2023-04-25T07:33:15;98606.22;;;13.34;49.94
67740;BME280;54536;50.090;14.420;2023-04-25T07:35:41;98599.75;;;13.37;49.96
67740;BME280;54536;50.090;14.420;2023-04-25T07:38:08;98602.59;;;13.27;49.92
67740;BME280;54536;50.090;14.420;2023-04-25T07:40:35;98608.25;;;13.24;49.95
67740;BME280;54536;50.090;14.420;2023-04-25T07:43:02;98597.88;;;13.54;49.29
67740;BME280;54536;50.090;14.420;2023-04-25T07:45:28;98598.25;;;13.66;49.06
67740;BME280;54536;50.090;14.420;2023-04-25T07:47:54;98606.78;;;13.76;49.13
67740;BME280;54536;50.090;14.420;2023-04-25T07:50:19;98591.84;;;13.83;49.27
67740;BME280;54536;50.090;14.420;2023-04-25T07:52:46;98592.59;;;13.77;48.87
67740;BME280;54536;50.090;14.420;2023-04-25T07:55:12;98600.50;;;13.77;48.52
67740;BME280;54536;50.090;14.420;2023-04-25T07:57:38;98595.47;;;13.90;48.11
67740;BME280;54536;50.090;14.420;2023-04-25T08:00:05;98585.78;;;14.20;48.56
67740;BME280;54536;50.090;14.420;2023-04-25T08:02:35;98580.03;;;14.32;48.07
67740;BME280;54536;50.090;14.420;2023-04-25T08:05:02;98589.31;;;14.50;46.79
67740;BME280;54536;50.090;14.420;2023-04-25T08:07:28;98584.84;;;14.66;47.18
67740;BME280;54536;50.090;14.420;2023-04-25T08:09:54;98581.50;;;14.72;46.46
67740;BME280;54536;50.090;14.420;2023-04-25T08:12:20;98579.03;;;14.85;46.03
67740;BME280;54536;50.090;14.420;2023-04-25T08:14:46;98574.78;;;14.91;45.45
67740;BME280;54536;50.090;14.420;2023-04-25T08:17:12;98570.16;;;14.93;44.84
67740;BME280;54536;50.090;14.420;2023-04-25T08:19:41;98567.88;;;15.26;45.49
67740;BME280;54536;50.090;14.420;2023-04-25T08:22:07;98569.28;;;15.22;44.62
67740;BME280;54536;50.090;14.420;2023-04-25T08:24:34;98576.88;;;15.46;44.19
67740;BME280;54536;50.090;14.420;2023-04-25T08:27:00;98571.69;;;15.75;43.55
67740;BME280;54536;50.090;14.420;2023-04-25T08:29:26;98577.19;;;15.73;43.51
67740;BME280;54536;50.090;14.420;2023-04-25T08:31:54;98577.00;;;15.75;43.81
67740;BME280;54536;50.090;14.420;2023-04-25T08:34:20;98576.56;;;15.56;43.28
67740;BME280;54536;50.090;14.420;2023-04-25T08:36:46;98577.22;;;15.58;43.18
67740;BME280;54536;50.090;14.420;2023-04-25T08:39:13;98581.78;;;15.50;42.92
67740;BME280;54536;50.090;14.420;2023-04-25T08:41:40;98581.56;;;15.66;42.21
67740;BME280;54536;50.090;14.420;2023-04-25T08:44:10;98582.88;;;15.70;41.71
67740;BME280;54536;50.090;14.420;2023-04-25T08:46:40;98581.16;;;15.84;41.84
67740;BME280;54536;50.090;14.420;2023-04-25T08:49:09;98578.50;;;15.84;42.01
67740;BME280;54536;50.090;14.420;2023-04-25T08:51:44;98584.72;;;15.55;41.29
67740;BME280;54536;50.090;14.420;2023-04-25T08:54:15;98585.91;;;15.52;41.96
67740;BME280;54536;50.090;14.420;2023-04-25T08:56:45;98582.56;;;15.65;41.80
67740;BME280;54536;50.090;14.420;2023-04-25T08:59:14;98579.41;;;15.70;41.33
67740;BME280;54536;50.090;14.420;2023-04-25T09:01:42;98580.94;;;15.85;41.72
67740;BME280;54536;50.090;14.420;2023-04-25T09:04:09;98585.75;;;15.75;41.81
67740;BME280;54536;50.090;14.420;2023-04-25T09:06:35;98573.16;;;15.62;42.98
67740;BME280;54536;50.090;14.420;2023-04-25T09:09:08;98586.09;;;15.51;43.10
67740;BME280;54536;50.090;14.420;2023-04-25T09:11:36;98585.16;;;15.37;43.06
67740;BME280;54536;50.090;14.420;2023-04-25T09:14:20;98588.97;;;15.34;43.28
67740;BME280;54536;50.090;14.420;2023-04-25T09:19:27;98591.34;;;15.44;42.46
67740;BME280;54536;50.090;14.420;2023-04-25T09:21:58;98596.63;;;15.44;41.93
67740;BME280;54536;50.090;14.420;2023-04-25T09:27:09;98602.53;;;15.46;43.20
67740;BME280;54536;50.090;14.420;2023-04-25T09:29:39;98610.06;;;15.42;43.61
67740;BME280;54536;50.090;14.420;2023-04-25T09:32:23;98605.50;;;15.36;44.07
67740;BME280;54536;50.090;14.420;2023-04-25T09:34:51;98610.63;;;15.23;44.15
67740;BME280;54536;50.090;14.420;2023-04-25T09:37:29;98617.25;;;15.12;43.92
67740;BME280;54536;50.090;14.420;2023-04-25T09:40:00;98624.97;;;15.14;44.21
67740;BME280;54536;50.090;14.420;2023-04-25T09:42:31;98622.63;;;15.19;42.92
67740;BME280;54536;50.090;14.420;2023-04-25T09:45:01;98627.81;;;15.27;42.41
67740;BME280;54536;50.090;14.420;2023-04-25T09:47:28;98632.91;;;15.29;42.31
67740;BME280;54536;50.090;14.420;2023-04-25T09:49:54;98634.88;;;15.05;44.31
67740;BME280;54536;50.090;14.420;2023-04-25T09:52:23;98665.38;;;15.01;45.93
67740;BME280;54536;50.090;14.420;2023-04-25T09:54:50;98671.28;;;14.73;45.75
67740;BME280;54536;50.090;14.420;2023-04-25T09:57:24;98678.34;;;14.58;47.02
67740;BME280;54536;50.090;14.420;2023-04-25T09:59:54;98689.69;;;14.67;46.62
67740;BME280;54536;50.090;14.420;2023-04-25T10:02:23;98677.28;;;14.52;48.34
67740;BME280;54536;50.090;14.420;2023-04-25T10:04:52;98676.00;;;14.40;48.70
67740;BME280;54536;50.090;14.420;2023-04-25T10:07:29;98682.47;;;14.38;49.01
67740;BME280;54536;50.090;14.420;2023-04-25T10:10:01;98680.44;;;14.25;50.17
67740;BME280;54536;50.090;14.420;2023-04-25T10:12:29;98682.09;;;14.26;51.06
67740;BME280;54536;50.090;14.420;2023-04-25T10:14:58;98680.28;;;14.26;51.92
67740;BME280;54536;50.090;14.420;2023-04-25T10:17:26;98679.66;;;14.39;52.05
67740;BME280;54536;50.090;14.420;2023-04-25T10:19:54;98685.47;;;14.35;51.76
67740;BME280;54536;50.090;14.420;2023-04-25T10:24:56;98689.69;;;14.44;53.27
67740;BME280;54536;50.090;14.420;2023-04-25T10:27:22;98693.00;;;14.46;52.52
67740;BME280;54536;50.090;14.420;2023-04-25T10:30:08;98688.09;;;14.20;52.12
67740;BME280;54536;50.090;14.420;2023-04-25T10:32:38;98701.66;;;14.17;51.05
67740;BME280;54536;50.090;14.420;2023-04-25T10:35:18;98703.66;;;14.15;50.96
67740;BME280;54536;50.090;14.420;2023-04-25T10:38:04;98703.47;;;13.93;51.10
67740;BME280;54536;50.090;14.420;2023-04-25T10:40:33;98706.00;;;14.10;49.46
67740;BME280;54536;50.090;14.420;2023-04-25T10:45:59;98694.97;;;14.29;49.09
67740;BME280;54536;50.090;14.420;2023-04-25T10:48:27;98700.72;;;14.33;48.25
67740;BME280;54536;50.090;14.420;2023-04-25T10:51:10;98702.25;;;14.27;47.89
67740;BME280;54536;50.090;14.420;2023-04-25T10:53:37;98704.34;;;14.32;48.82
67740;BME280;54536;50.090;14.420;2023-04-25T10:56:23;98702.69;;;14.31;48.61
67740;BME280;54536;50.090;14.420;2023-04-25T10:58:51;98701.47;;;14.18;48.78
67740;BME280;54536;50.090;14.420;2023-04-25T11:01:24;98701.47;;;14.18;48.62
67740;BME280;54536;50.090;14.420;2023-04-25T11:03:57;98705.91;;;14.26;48.90
67740;BME280;54536;50.090;14.420;2023-04-25T11:09:01;98723.31;;;14.35;48.89
67740;BME280;54536;50.090;14.420;2023-04-25T11:11:29;98731.00;;;14.53;48.40
67740;BME280;54536;50.090;14.420;2023-04-25T11:13:55;98727.19;;;14.70;47.44
67740;BME280;54536;50.090;14.420;2023-04-25T11:16:24;98727.19;;;14.70;47.89
67740;BME280;54536;50.090;14.420;2023-04-25T11:18:50;98717.97;;;15.04;46.97
67740;BME280;54536;50.090;14.420;2023-04-25T11:21:17;98717.66;;;14.99;46.92
67740;BME280;54536;50.090;14.420;2023-04-25T11:23:45;98722.25;;;14.67;47.61
67740;BME280;54536;50.090;14.420;2023-04-25T11:26:13;98723.94;;;14.68;47.62
67740;BME280;54536;50.090;14.420;2023-04-25T11:28:39;98719.50;;;14.61;48.00
67740;BME280;54536;50.090;14.420;2023-04-25T11:31:05;98722.50;;;14.58;48.35
67740;BME280;54536;50.090;14.420;2023-04-25T11:33:32;98725.28;;;14.64;48.30
67740;BME280;54536;50.090;14.420;2023-04-25T11:35:58;98721.34;;;14.60;48.58
67740;BME280;54536;50.090;14.420;2023-04-25T11:38:24;98726.16;;;14.57;48.28
67740;BME280;54536;50.090;14.420;2023-04-25T11:40:52;98721.28;;;14.68;46.57
67740;BME280;54536;50.090;14.420;2023-04-25T11:43:22;98720.47;;;14.83;44.52
67740;BME280;54536;50.090;14.420;2023-04-25T11:45:49;98714.84;;;14.86;44.51
67740;BME280;54536;50.090;14.420;2023-04-25T11:48:17;98715.13;;;15.20;43.35
67740;BME280;54536;50.090;14.420;2023-04-25T11:50:43;98712.03;;;15.32;42.05
67740;BME280;54536;50.090;14.420;2023-04-25T11:53:10;98705.88;;;15.61;41.25
67740;BME280;54536;50.090;14.420;2023-04-25T11:55:37;98698.44;;;15.86;40.78
67740;BME280;54536;50.090;14.420;2023-04-25T11:58:04;98698.78;;;16.19;40.11
67740;BME280;54536;50.090;14.420;2023-04-25T12:00:30;98709.69;;;16.31;39.64
67740;BME280;54536;50.090;14.420;2023-04-25T12:02:57;98696.53;;;16.66;37.58
67740;BME280;54536;50.090;14.420;2023-04-25T12:05:27;98705.25;;;16.59;37.08
67740;BME280;54536;50.090;14.420;2023-04-25T12:07:54;98696.13;;;17.25;35.97
67740;BME280;54536;50.090;14.420;2023-04-25T12:10:20;98685.44;;;18.41;34.48
67740;BME280;54536;50.090;14.420;2023-04-25T12:12:48;98693.88;;;18.91;33.44
67740;BME280;54536;50.090;14.420;2023-04-25T12:15:23;98690.16;;;18.45;33.86
67740;BME280;54536;50.090;14.420;2023-04-25T12:17:51;98684.59;;;18.20;35.30
67740;BME280;54536;50.090;14.420;2023-04-25T12:20:24;98689.19;;;19.51;32.07
67740;BME280;54536;50.090;14.420;2023-04-25T12:22:51;98681.66;;;19.86;30.98
67740;BME280;54536;50.090;14.420;2023-04-25T12:25:37;98684.09;;;21.01;28.13
67740;BME280;54536;50.090;14.420;2023-04-25T12:30:59;98685.47;;;21.96;26.59
67740;BME280;54536;50.090;14.420;2023-04-25T12:33:28;98680.13;;;22.50;26.76
67740;BME280;54536;50.090;14.420;2023-04-25T12:35:55;98675.34;;;23.46;24.87
67740;BME280;54536;50.090;14.420;2023-04-25T12:38:26;98670.13;;;24.25;23.76
67740;BME280;54536;50.090;14.420;2023-04-25T12:40:54;98665.44;;;24.49;23.36
67740;BME280;54536;50.090;14.420;2023-04-25T12:43:20;98676.19;;;24.49;22.89
67740;BME280;54536;50.090;14.420;2023-04-25T12:45:52;98680.19;;;24.63;22.70
67740;BME280;54536;50.090;14.420;2023-04-25T12:48:19;98677.91;;;24.10;24.28
67740;BME280;54536;50.090;14.420;2023-04-25T12:50:47;98691.97;;;23.19;25.24
67740;BME280;54536;50.090;14.420;2023-04-25T12:53:19;98693.84;;;22.00;25.84
67740;BME280;54536;50.090;14.420;2023-04-25T12:55:46;98704.25;;;21.22;26.88
67740;BME280;54536;50.090;14.420;2023-04-25T12:58:17;98703.25;;;20.17;28.59
67740;BME280;54536;50.090;14.420;2023-04-25T13:00:45;98704.94;;;19.73;29.10
67740;BME280;54536;50.090;14.420;2023-04-25T13:03:11;98701.72;;;19.44;29.91
67740;BME280;54536;50.090;14.420;2023-04-25T13:05:39;98706.94;;;19.12;31.40
67740;BME280;54536;50.090;14.420;2023-04-25T13:08:06;98714.75;;;19.07;30.59